createdAt,value
2022-08-09T00:01:14.418Z,29.10
2022-08-09T00:04:37.002Z,29.00
2022-08-09T00:08:00.008Z,29.00
2022-08-09T00:11:25.027Z,29.00
2022-08-09T00:14:48.715Z,29.00
2022-08-09T00:18:14.890Z,29.00
2022-08-09T00:21:36.102Z,29.00
2022-08-09T00:24:57.400Z,28.90
2022-08-09T00:28:17.933Z,29.00
2022-08-09T00:31:59.387Z,28.90
2022-08-09T00:35:19.776Z,28.90
2022-08-09T00:38:40.523Z,28.90
2022-08-09T00:44:09.986Z,28.80
2022-08-09T00:45:50.439Z,28.90
2022-08-09T00:49:14.238Z,28.80
2022-08-09T00:52:38.022Z,28.80
2022-08-09T00:56:04.643Z,28.80
2022-08-09T00:59:40.530Z,28.80
2022-08-09T01:03:20.019Z,28.80
2022-08-09T01:06:54.772Z,28.80
2022-08-09T01:10:37.511Z,28.80
2022-08-09T01:14:04.619Z,28.80
2022-08-09T01:17:37.826Z,28.80
2022-08-09T01:21:45.159Z,28.80
2022-08-09T01:25:25.537Z,28.70
2022-08-09T01:28:53.809Z,28.80
2022-08-09T01:32:31.281Z,28.80
2022-08-09T01:36:05.762Z,28.70
2022-08-09T01:39:27.420Z,28.70
2022-08-09T01:42:49.927Z,28.80
2022-08-09T01:46:18.400Z,28.70
2022-08-09T01:49:48.775Z,28.70
2022-08-09T01:53:19.957Z,28.70
2022-08-09T01:56:47.221Z,28.70
2022-08-09T02:00:34.570Z,28.70
2022-08-09T02:03:58.034Z,28.70
2022-08-09T02:08:38.590Z,28.70
2022-08-09T02:11:16.706Z,28.60
2022-08-09T02:14:40.392Z,28.60
2022-08-09T02:18:10.790Z,28.60
2022-08-09T02:21:39.458Z,28.60
2022-08-09T02:25:07.299Z,28.50
2022-08-09T02:28:35.666Z,28.50
2022-08-09T02:32:05.278Z,28.50
2022-08-09T02:36:01.152Z,28.50
2022-08-09T02:39:14.442Z,28.40
2022-08-09T02:42:43.269Z,28.40
2022-08-09T02:46:08.764Z,28.30
2022-08-09T02:49:38.964Z,28.30
2022-08-09T02:53:06.524Z,28.20
2022-08-09T02:56:28.080Z,28.20
2022-08-09T03:00:21.116Z,28.20
2022-08-09T03:04:05.786Z,28.10
2022-08-09T03:07:14.354Z,28.10
2022-08-09T03:10:36.400Z,28.10
2022-08-09T03:14:01.337Z,28.00
2022-08-09T03:17:27.227Z,28.00
2022-08-09T03:20:48.561Z,27.90
2022-08-09T03:24:10.375Z,28.00
2022-08-09T03:27:37.228Z,27.90
2022-08-09T03:31:10.502Z,27.90
2022-08-09T03:34:42.151Z,27.90
2022-08-09T03:38:08.959Z,27.90
2022-08-09T03:41:49.011Z,28.00
2022-08-09T03:46:03.014Z,27.90
2022-08-09T03:49:09.640Z,27.80
2022-08-09T03:52:31.754Z,27.70
2022-08-09T03:55:52.662Z,27.70
2022-08-09T03:59:20.859Z,27.70
2022-08-09T04:02:52.675Z,27.60
2022-08-09T04:06:14.017Z,27.60
2022-08-09T04:09:42.102Z,27.50
2022-08-09T04:13:11.505Z,27.40
2022-08-09T04:16:31.819Z,27.40
2022-08-09T04:19:56.230Z,27.30
2022-08-09T04:23:17.869Z,27.30
2022-08-09T04:26:43.710Z,27.30
2022-08-09T04:30:04.464Z,27.20
2022-08-09T04:33:28.822Z,27.30
2022-08-09T04:36:50.328Z,27.30
2022-08-09T04:40:11.662Z,27.40
2022-08-09T04:43:53.882Z,27.50
2022-08-09T04:47:20.389Z,27.50
2022-08-09T04:50:42.554Z,27.50
2022-08-09T04:54:03.179Z,27.60
2022-08-09T04:57:25.108Z,27.60
2022-08-09T05:00:45.670Z,27.70
2022-08-09T05:04:06.564Z,27.70
2022-08-09T05:07:29.363Z,27.80
2022-08-09T05:10:52.610Z,27.80
2022-08-09T05:14:14.588Z,27.90
2022-08-09T05:18:37.735Z,27.90
2022-08-09T05:21:23.298Z,28.00
2022-08-09T05:24:45.110Z,28.10
2022-08-09T05:28:08.821Z,28.10
2022-08-09T05:31:44.417Z,28.20
2022-08-09T05:35:08.214Z,28.20
2022-08-09T05:38:30.715Z,28.20
2022-08-09T05:41:51.659Z,28.30
2022-08-09T05:45:14.229Z,28.40
2022-08-09T05:48:35.264Z,28.40
2022-08-09T05:51:58.159Z,28.40
2022-08-09T05:55:20.513Z,28.50
2022-08-09T05:58:41.711Z,28.50
2022-08-09T06:02:02.135Z,28.50
2022-08-09T06:05:50.216Z,28.50
2022-08-09T06:09:03.321Z,28.60
2022-08-09T06:12:31.141Z,28.50
2022-08-09T06:15:52.800Z,28.60
2022-08-09T06:19:14.753Z,28.50
2022-08-09T06:22:35.696Z,28.60
2022-08-09T06:25:56.960Z,28.60
2022-08-09T06:29:17.397Z,28.60
2022-08-09T06:32:59.157Z,28.60
2022-08-09T06:36:20.390Z,28.60
2022-08-09T06:39:57.910Z,28.60
2022-08-09T06:43:21.194Z,28.60
2022-08-09T06:46:41.953Z,28.60
2022-08-09T06:50:13.756Z,28.60
2022-08-09T06:53:38.426Z,28.60
2022-08-09T06:56:58.999Z,28.60
2022-08-09T07:00:52.717Z,28.60
2022-08-09T07:04:03.859Z,28.60
2022-08-09T07:08:00.247Z,28.60
2022-08-09T07:11:06.597Z,28.70
2022-08-09T07:14:27.483Z,28.60
2022-08-09T07:17:52.558Z,28.60
2022-08-09T07:21:17.343Z,28.70
2022-08-09T07:24:40.524Z,28.70
2022-08-09T07:28:04.684Z,28.70
2022-08-09T07:31:25.081Z,28.70
2022-08-09T07:34:45.280Z,28.70
2022-08-09T07:38:07.108Z,28.90
2022-08-09T07:41:27.442Z,28.80
2022-08-09T07:44:56.249Z,28.90
2022-08-09T07:48:28.878Z,28.90
2022-08-09T07:52:06.230Z,29.10
2022-08-09T07:55:41.358Z,29.10
2022-08-09T07:59:14.063Z,29.20
2022-08-09T08:02:47.811Z,29.20
2022-08-09T08:06:08.384Z,29.20
2022-08-09T08:09:44.333Z,29.20
2022-08-09T08:13:12.183Z,29.20
2022-08-09T08:16:35.331Z,29.20
2022-08-09T08:20:00.269Z,29.20
2022-08-09T08:23:20.821Z,29.30
2022-08-09T08:26:56.036Z,29.30
2022-08-09T08:30:20.058Z,29.30
2022-08-09T08:33:53.913Z,29.30
2022-08-09T08:37:17.782Z,29.30
2022-08-09T08:40:38.628Z,29.40
2022-08-09T08:44:02.737Z,29.50
2022-08-09T08:47:27.553Z,29.50
2022-08-09T08:50:52.039Z,29.50
2022-08-09T08:54:20.178Z,29.50
2022-08-09T08:57:41.569Z,29.60
2022-08-09T09:01:09.072Z,29.60
2022-08-09T09:04:48.111Z,29.60
2022-08-09T09:08:30.065Z,29.70
2022-08-09T09:11:52.460Z,29.70
2022-08-09T09:15:12.872Z,29.70
2022-08-09T09:19:10.842Z,29.80
2022-08-09T09:22:51.665Z,29.80
2022-08-09T09:26:13.737Z,29.90
2022-08-09T09:30:09.340Z,29.90
2022-08-09T09:33:17.870Z,29.90
2022-08-09T09:36:51.298Z,30.00
2022-08-09T09:40:14.757Z,30.00
2022-08-09T09:44:10.276Z,30.00
2022-08-09T09:47:21.387Z,30.00
2022-08-09T09:50:49.792Z,30.00
2022-08-09T09:54:21.207Z,30.10
2022-08-09T09:58:03.710Z,30.10
2022-08-09T10:01:30.271Z,30.10
2022-08-09T10:05:09.756Z,30.20
2022-08-09T10:08:29.935Z,30.20
2022-08-09T10:12:11.328Z,30.20
2022-08-09T10:16:08.802Z,30.30
2022-08-09T10:19:37.696Z,30.20
2022-08-09T10:23:00.975Z,30.30
2022-08-09T10:26:24.683Z,30.30
2022-08-09T10:30:43.580Z,30.30
2022-08-09T10:33:29.704Z,30.30
2022-08-09T10:37:09.790Z,30.40
2022-08-09T10:40:40.982Z,30.40
2022-08-09T10:44:05.009Z,30.40
2022-08-09T10:48:16.431Z,30.40
2022-08-09T10:51:29.698Z,30.40
2022-08-09T10:55:22.775Z,30.40
2022-08-09T10:58:43.972Z,30.50
2022-08-09T11:03:13.759Z,30.50
2022-08-09T11:06:20.809Z,30.60
2022-08-09T11:09:48.234Z,30.50
2022-08-09T11:13:50.445Z,30.60
2022-08-09T11:16:58.001Z,30.60
2022-08-09T11:20:37.158Z,30.70
2022-08-09T11:24:02.351Z,30.70
2022-08-09T11:28:03.943Z,30.70
2022-08-09T11:31:49.118Z,30.70
2022-08-09T11:35:49.480Z,30.80
2022-08-09T11:39:11.804Z,30.80
2022-08-09T11:42:39.511Z,30.80
2022-08-09T11:46:01.872Z,30.80
2022-08-09T11:50:55.587Z,30.80
2022-08-09T11:53:59.282Z,30.80
2022-08-09T11:57:47.443Z,30.80
2022-08-09T12:01:37.646Z,30.80
2022-08-09T12:05:13.228Z,30.80
2022-08-09T12:08:44.147Z,30.90
2022-08-09T12:12:06.024Z,30.90
2022-08-09T12:15:50.404Z,30.90
2022-08-09T12:19:13.081Z,31.00
2022-08-09T12:22:34.066Z,30.90
2022-08-09T12:25:55.362Z,30.90
2022-08-09T12:29:32.979Z,30.90
2022-08-09T12:33:03.294Z,31.00
2022-08-09T12:36:31.387Z,30.90
2022-08-09T12:40:08.276Z,31.00
2022-08-09T12:44:05.879Z,31.00
2022-08-09T12:47:11.343Z,31.00
2022-08-09T12:50:35.584Z,31.00
2022-08-09T12:54:08.289Z,31.00
2022-08-09T12:57:46.247Z,31.00
2022-08-09T13:01:26.659Z,31.00
2022-08-09T13:05:02.478Z,31.00
2022-08-09T13:08:40.582Z,31.00
2022-08-09T13:12:03.418Z,31.00
2022-08-09T13:15:24.061Z,31.00
2022-08-09T13:18:53.991Z,31.00
2022-08-09T13:22:35.317Z,31.00
2022-08-09T13:26:01.274Z,31.10
2022-08-09T13:29:41.980Z,31.00
2022-08-09T13:33:04.670Z,31.10
2022-08-09T13:36:40.510Z,31.00
2022-08-09T13:41:52.158Z,31.00
2022-08-09T13:43:44.087Z,31.10
2022-08-09T13:47:29.520Z,31.10
2022-08-09T13:50:51.577Z,31.10
2022-08-09T13:54:13.497Z,31.10
2022-08-09T13:57:40.528Z,31.20
2022-08-09T14:01:01.432Z,31.20
2022-08-09T14:04:23.741Z,31.10
2022-08-09T14:07:44.535Z,31.10
2022-08-09T14:11:04.555Z,31.10
2022-08-09T14:14:37.586Z,31.10
2022-08-09T14:18:19.097Z,31.10
2022-08-09T14:21:40.697Z,31.10
2022-08-09T14:25:01.183Z,31.10
2022-08-09T14:28:21.665Z,31.10
2022-08-09T14:31:51.810Z,31.10
2022-08-09T14:35:12.489Z,31.20
2022-08-09T14:38:33.946Z,31.10
2022-08-09T14:41:55.457Z,31.20
2022-08-09T14:46:54.807Z,31.20
2022-08-09T14:48:56.577Z,31.20
2022-08-09T14:52:17.544Z,31.10
2022-08-09T14:55:38.002Z,31.20
2022-08-09T14:59:02.955Z,31.10
2022-08-09T15:02:23.107Z,31.20
2022-08-09T15:05:50.258Z,31.20
2022-08-09T15:10:03.841Z,31.20
2022-08-09T15:13:03.233Z,31.20
2022-08-09T15:16:23.924Z,31.20
2022-08-09T15:19:58.944Z,31.20
2022-08-09T15:24:00.798Z,31.20
2022-08-09T15:27:00.877Z,31.20
2022-08-09T15:30:55.355Z,31.20
2022-08-09T15:34:31.463Z,31.20
2022-08-09T15:37:57.133Z,31.20
2022-08-09T15:41:22.406Z,31.20
2022-08-09T15:44:42.920Z,31.20
2022-08-09T15:48:27.891Z,31.20
2022-08-09T15:52:03.194Z,31.20
2022-08-09T15:55:25.365Z,31.20
2022-08-09T15:58:46.450Z,31.20
2022-08-09T16:02:06.897Z,31.20
2022-08-09T16:05:47.273Z,31.10
2022-08-09T16:09:09.576Z,31.10
2022-08-09T16:12:31.048Z,31.10
2022-08-09T16:16:11.574Z,31.20
2022-08-09T16:19:36.880Z,31.10
2022-08-09T16:23:10.183Z,31.10
2022-08-09T16:26:35.316Z,31.10
2022-08-09T16:30:01.064Z,31.10
2022-08-09T16:33:23.230Z,31.10
2022-08-09T16:36:44.377Z,31.10
2022-08-09T16:40:08.017Z,31.10
2022-08-09T16:43:28.878Z,31.10
2022-08-09T16:46:55.214Z,31.00
2022-08-09T16:50:28.687Z,31.00
2022-08-09T16:54:16.428Z,31.00
2022-08-09T16:58:09.372Z,31.00
2022-08-09T17:01:12.001Z,31.00
2022-08-09T17:04:32.266Z,31.00
2022-08-09T17:08:46.511Z,31.00
2022-08-09T17:11:40.363Z,31.00
2022-08-09T17:15:01.966Z,31.00
2022-08-09T17:18:42.561Z,31.10
2022-08-09T17:22:05.474Z,31.10
2022-08-09T17:25:30.397Z,31.10
2022-08-09T17:28:51.057Z,31.00
2022-08-09T17:32:11.486Z,31.00
2022-08-09T17:35:40.908Z,31.10
2022-08-09T17:39:02.009Z,31.10
2022-08-09T17:42:40.887Z,31.10
2022-08-09T17:46:06.638Z,31.00
2022-08-09T17:49:28.039Z,31.00
2022-08-09T17:52:51.626Z,31.10
2022-08-09T17:56:12.262Z,31.10
2022-08-09T17:59:38.260Z,31.10
2022-08-09T18:02:59.247Z,31.10
2022-08-09T18:06:30.742Z,31.00
2022-08-09T18:10:04.577Z,31.00
2022-08-09T18:13:38.845Z,31.00
2022-08-09T18:17:06.388Z,31.00
2022-08-09T18:20:54.436Z,31.00
2022-08-09T18:24:14.570Z,31.00
2022-08-09T18:28:02.003Z,31.00
2022-08-09T18:31:25.024Z,30.90
2022-08-09T18:34:52.466Z,31.00
2022-08-09T18:38:13.029Z,31.00
2022-08-09T18:41:35.044Z,30.90
2022-08-09T18:44:55.621Z,30.90
2022-08-09T18:48:17.562Z,30.90
2022-08-09T18:51:55.603Z,30.90
2022-08-09T18:55:19.418Z,30.90
2022-08-09T18:58:58.250Z,30.90
2022-08-09T19:02:30.619Z,30.90
2022-08-09T19:06:03.212Z,30.90
2022-08-09T19:10:12.946Z,30.90
2022-08-09T19:13:18.454Z,30.90
2022-08-09T19:16:49.923Z,30.90
2022-08-09T19:20:11.481Z,30.90
2022-08-09T19:24:32.522Z,30.90
2022-08-09T19:27:12.588Z,30.90
2022-08-09T19:30:34.301Z,30.90
2022-08-09T19:33:55.891Z,30.80
2022-08-09T19:37:17.111Z,30.90
2022-08-09T19:40:37.490Z,30.80
2022-08-09T19:44:01.474Z,30.80
2022-08-09T19:47:27.121Z,30.80
2022-08-09T19:50:54.174Z,30.80
2022-08-09T19:54:14.944Z,30.80
2022-08-09T19:57:35.537Z,30.80
2022-08-09T20:00:56.529Z,30.80
2022-08-09T20:04:29.891Z,30.80
2022-08-09T20:08:00.609Z,30.80
2022-08-09T20:11:27.128Z,30.80
2022-08-09T20:14:54.418Z,30.80
2022-08-09T20:18:14.806Z,30.80
2022-08-09T20:21:40.634Z,30.80
2022-08-09T20:25:22.713Z,30.80
2022-08-09T20:28:48.709Z,30.80
2022-08-09T20:32:29.362Z,30.80
2022-08-09T20:35:52.541Z,30.80
2022-08-09T20:39:28.432Z,30.80
2022-08-09T20:43:00.298Z,30.80
2022-08-09T20:46:43.233Z,30.80
2022-08-09T20:50:14.730Z,30.80
2022-08-09T20:53:50.034Z,30.80
2022-08-09T20:57:10.525Z,30.80
2022-08-09T21:00:32.250Z,30.70
2022-08-09T21:04:35.632Z,30.70
2022-08-09T21:07:40.688Z,30.80
2022-08-09T21:11:06.334Z,30.70
2022-08-09T21:14:30.922Z,30.70
2022-08-09T21:18:22.111Z,30.70
2022-08-09T21:21:52.901Z,30.70
2022-08-09T21:25:37.938Z,30.70
2022-08-09T21:28:58.476Z,30.70
2022-08-09T21:32:20.460Z,30.70
2022-08-09T21:35:53.815Z,30.70
2022-08-09T21:39:21.767Z,30.70
2022-08-09T21:42:47.772Z,30.70
2022-08-09T21:46:14.655Z,30.70
2022-08-09T21:49:39.826Z,30.70
2022-08-09T21:53:03.894Z,30.70
2022-08-09T21:56:43.268Z,30.70
2022-08-09T22:00:10.443Z,30.70
2022-08-09T22:03:33.291Z,30.70
2022-08-09T22:07:02.140Z,30.70
2022-08-09T22:10:25.286Z,30.70
2022-08-09T22:13:47.426Z,30.70
2022-08-09T22:17:10.646Z,30.70
2022-08-09T22:20:32.311Z,30.70
2022-08-09T22:24:00.127Z,30.60
2022-08-09T22:27:22.271Z,30.60
2022-08-09T22:30:48.776Z,30.60
2022-08-09T22:34:14.964Z,30.60
2022-08-09T22:37:40.339Z,30.60
2022-08-09T22:41:02.216Z,30.60
2022-08-09T22:44:22.522Z,30.60
2022-08-09T22:48:14.810Z,30.60
2022-08-09T22:51:23.786Z,30.60
2022-08-09T22:54:46.897Z,30.60
2022-08-09T22:58:07.782Z,30.60
2022-08-09T23:01:29.354Z,30.50
2022-08-09T23:04:53.854Z,30.50
2022-08-09T23:08:33.992Z,30.50
2022-08-09T23:11:55.408Z,30.50
2022-08-09T23:15:15.650Z,30.50
2022-08-09T23:18:35.950Z,30.50
2022-08-09T23:21:56.484Z,30.50
2022-08-09T23:25:16.960Z,30.50
2022-08-09T23:28:37.452Z,30.50
2022-08-09T23:31:57.724Z,30.50
2022-08-09T23:35:18.138Z,30.50
2022-08-09T23:38:48.972Z,30.50
2022-08-09T23:42:09.405Z,30.50
2022-08-09T23:45:36.893Z,30.50
2022-08-09T23:49:00.121Z,30.50
2022-08-09T23:52:20.500Z,30.50
2022-08-09T23:55:49.476Z,30.50
2022-08-09T23:59:10.209Z,30.50
